createdAt,value
2018-09-25T00:00:27.761Z,1021.41
2018-09-25T00:01:27.739Z,1021.41
2018-09-25T00:02:27.727Z,1021.39
2018-09-25T00:03:27.731Z,1021.36
2018-09-25T00:04:27.703Z,1021.34
2018-09-25T00:05:27.712Z,1021.35
2018-09-25T00:06:27.686Z,1021.42
2018-09-25T00:07:27.678Z,1021.41
2018-09-25T00:08:27.687Z,1021.42
2018-09-25T00:09:27.655Z,1021.45
2018-09-25T00:10:27.700Z,1021.40
2018-09-25T00:11:27.635Z,1021.42
2018-09-25T00:12:27.617Z,1021.43
2018-09-25T00:13:27.650Z,1021.46
2018-09-25T00:14:27.602Z,1021.44
2018-09-25T00:15:27.592Z,1021.44
2018-09-25T00:16:27.601Z,1021.46
2018-09-25T00:17:27.567Z,1021.41
2018-09-25T00:18:27.576Z,1021.41
2018-09-25T00:19:27.551Z,1021.42
2018-09-25T00:20:27.543Z,1021.40
2018-09-25T00:21:27.545Z,1021.40
2018-09-25T00:22:27.602Z,1021.42
2018-09-25T00:23:27.504Z,1021.43
2018-09-25T00:24:27.491Z,1021.42
2018-09-25T00:25:27.498Z,1021.43
2018-09-25T00:26:27.496Z,1021.49
2018-09-25T00:27:27.464Z,1021.48
2018-09-25T00:28:27.455Z,1021.45
2018-09-25T00:29:27.466Z,1021.46
2018-09-25T00:30:27.429Z,1021.43
2018-09-25T00:31:27.440Z,1021.44
2018-09-25T00:32:27.413Z,1021.47
2018-09-25T00:33:27.402Z,1021.45
2018-09-25T00:34:27.387Z,1021.45
2018-09-25T00:35:27.400Z,1021.51
2018-09-25T00:36:27.364Z,1021.47
2018-09-25T00:37:27.375Z,1021.54
2018-09-25T00:38:27.347Z,1021.46
2018-09-25T00:39:27.341Z,1021.48
2018-09-25T00:40:27.330Z,1021.49
2018-09-25T00:41:27.334Z,1021.47
2018-09-25T00:42:27.355Z,1021.49
2018-09-25T00:43:27.291Z,1021.54
2018-09-25T00:44:27.280Z,1021.56
2018-09-25T00:45:27.272Z,1021.60
2018-09-25T00:46:27.306Z,1021.59
2018-09-25T00:47:27.255Z,1021.56
2018-09-25T00:48:27.238Z,1021.57
2018-09-25T00:49:27.229Z,1021.54
2018-09-25T00:50:27.225Z,1021.58
2018-09-25T00:51:27.213Z,1021.61
2018-09-25T00:52:27.220Z,1021.59
2018-09-25T00:53:27.192Z,1021.59
2018-09-25T00:54:27.195Z,1021.58
2018-09-25T00:55:27.165Z,1021.64
2018-09-25T00:56:27.160Z,1021.65
2018-09-25T00:57:27.164Z,1021.63
2018-09-25T00:58:27.137Z,1021.62
2018-09-25T00:59:27.190Z,1021.65
2018-09-25T01:00:27.118Z,1021.64
2018-09-25T01:01:27.105Z,1021.64
2018-09-25T01:02:27.108Z,1021.70
2018-09-25T01:03:27.091Z,1021.64
2018-09-25T01:04:27.076Z,1021.63
2018-09-25T01:05:27.080Z,1021.65
2018-09-25T01:06:27.050Z,1021.63
2018-09-25T01:07:27.065Z,1021.70
2018-09-25T01:08:27.026Z,1021.66
2018-09-25T01:09:27.017Z,1021.67
2018-09-25T01:10:27.010Z,1021.66
2018-09-25T01:11:27.009Z,1021.67
2018-09-25T01:12:26.991Z,1021.67
2018-09-25T01:13:27.012Z,1021.68
2018-09-25T01:14:26.965Z,1021.67
2018-09-25T01:15:26.952Z,1021.67
2018-09-25T01:16:26.944Z,1021.62
2018-09-25T01:17:26.938Z,1021.63
2018-09-25T01:18:26.936Z,1021.66
2018-09-25T01:19:26.934Z,1021.67
2018-09-25T01:20:26.910Z,1021.66
2018-09-25T01:21:26.893Z,1021.69
2018-09-25T01:22:26.883Z,1021.67
2018-09-25T01:23:26.894Z,1021.66
2018-09-25T01:24:26.869Z,1021.65
2018-09-25T01:25:26.858Z,1021.61
2018-09-25T01:26:26.842Z,1021.66
2018-09-25T01:27:26.829Z,1021.67
2018-09-25T01:28:26.836Z,1021.68
2018-09-25T01:29:26.810Z,1021.65
2018-09-25T01:30:26.797Z,1021.69
2018-09-25T01:31:26.785Z,1021.69
2018-09-25T01:32:26.785Z,1021.71
2018-09-25T01:33:26.786Z,1021.69
2018-09-25T01:34:26.757Z,1021.72
2018-09-25T01:35:26.766Z,1021.68
2018-09-25T01:36:26.731Z,1021.70
2018-09-25T01:37:26.727Z,1021.69
2018-09-25T01:38:26.718Z,1021.75
2018-09-25T01:39:26.708Z,1021.75
2018-09-25T01:40:26.726Z,1021.69
2018-09-25T01:41:26.700Z,1021.71
2018-09-25T01:42:26.671Z,1021.74
2018-09-25T01:43:26.673Z,1021.77
2018-09-25T01:44:26.647Z,1021.73
2018-09-25T01:45:26.645Z,1021.80
2018-09-25T01:46:26.647Z,1021.85
2018-09-25T01:47:26.626Z,1021.86
2018-09-25T01:48:26.615Z,1021.88
2018-09-25T01:49:26.617Z,1021.85
2018-09-25T01:50:26.588Z,1021.90
2018-09-25T01:51:26.597Z,1021.86
2018-09-25T01:52:26.572Z,1021.87
2018-09-25T01:53:26.558Z,1021.90
2018-09-25T01:54:26.574Z,1021.85
2018-09-25T01:55:26.536Z,1021.84
2018-09-25T01:56:26.542Z,1021.86
2018-09-25T01:57:26.512Z,1021.83
2018-09-25T01:58:26.505Z,1021.84
2018-09-25T01:59:26.496Z,1021.85
2018-09-25T02:00:26.486Z,1021.84
2018-09-25T02:01:26.497Z,1021.81
2018-09-25T02:02:26.460Z,1021.84
2018-09-25T02:03:26.449Z,1021.80
2018-09-25T02:04:26.437Z,1021.76
2018-09-25T02:05:26.441Z,1021.79
2018-09-25T02:06:26.438Z,1021.78
2018-09-25T02:07:26.411Z,1021.76
2018-09-25T02:08:26.394Z,1021.75
2018-09-25T02:09:26.403Z,1021.74
2018-09-25T02:10:26.378Z,1021.76
2018-09-25T02:11:26.370Z,1021.76
2018-09-25T02:12:26.363Z,1021.74
2018-09-25T02:13:26.348Z,1021.77
2018-09-25T02:14:26.350Z,1021.73
2018-09-25T02:15:26.322Z,1021.79
2018-09-25T02:16:26.339Z,1021.71
2018-09-25T02:17:26.304Z,1021.72
2018-09-25T02:18:26.295Z,1021.69
2018-09-25T02:19:26.287Z,1021.78
2018-09-25T02:20:26.295Z,1021.75
2018-09-25T02:21:26.289Z,1021.79
2018-09-25T02:22:26.250Z,1021.77
2018-09-25T02:23:26.239Z,1021.75
2018-09-25T02:24:26.235Z,1021.78
2018-09-25T02:25:26.221Z,1021.77
2018-09-25T02:26:26.209Z,1021.80
2018-09-25T02:27:26.214Z,1021.83
2018-09-25T02:28:26.184Z,1021.81
2018-09-25T02:29:26.177Z,1021.81
2018-09-25T02:30:26.172Z,1021.77
2018-09-25T02:31:26.161Z,1021.83
2018-09-25T02:32:26.167Z,1021.83
2018-09-25T02:33:26.157Z,1021.83
2018-09-25T02:34:26.125Z,1021.85
2018-09-25T02:35:26.119Z,1021.82
2018-09-25T02:36:26.106Z,1021.90
2018-09-25T02:37:26.138Z,1021.87
2018-09-25T02:38:26.096Z,1021.90
2018-09-25T02:39:26.076Z,1021.92
2018-09-25T02:40:26.059Z,1021.90
2018-09-25T02:41:26.067Z,1021.89
2018-09-25T02:42:26.042Z,1021.87
2018-09-25T02:43:26.044Z,1021.89
2018-09-25T02:44:26.021Z,1021.90
2018-09-25T02:45:26.008Z,1021.87
2018-09-25T02:46:26.011Z,1021.91
2018-09-25T02:47:25.984Z,1021.87
2018-09-25T02:48:25.975Z,1021.89
2018-09-25T02:49:25.961Z,1021.87
2018-09-25T02:50:25.967Z,1021.87
2018-09-25T02:51:25.965Z,1021.85
2018-09-25T02:52:25.954Z,1021.87
2018-09-25T02:53:25.926Z,1021.86
2018-09-25T02:54:25.909Z,1021.81
2018-09-25T02:55:25.902Z,1021.85
2018-09-25T02:56:25.916Z,1021.87
2018-09-25T02:57:25.885Z,1021.85
2018-09-25T02:58:25.889Z,1021.86
2018-09-25T02:59:25.859Z,1021.86
2018-09-25T03:00:25.851Z,1021.81
2018-09-25T03:01:25.877Z,1021.80
2018-09-25T03:02:25.832Z,1021.80
2018-09-25T03:03:25.821Z,1021.80
2018-09-25T03:04:25.817Z,1021.82
2018-09-25T03:05:25.800Z,1021.82
2018-09-25T03:06:25.808Z,1021.80
2018-09-25T03:07:25.776Z,1021.81
2018-09-25T03:08:25.765Z,1021.82
2018-09-25T03:09:25.752Z,1021.79
2018-09-25T03:10:25.748Z,1021.78
2018-09-25T03:11:25.781Z,1021.77
2018-09-25T03:12:25.725Z,1021.78
2018-09-25T03:13:25.794Z,1021.76
2018-09-25T03:14:25.711Z,1021.78
2018-09-25T03:15:25.692Z,1021.81
2018-09-25T03:16:25.682Z,1021.78
2018-09-25T03:17:25.691Z,1021.81
2018-09-25T03:18:25.676Z,1021.83
2018-09-25T03:19:25.718Z,1021.85
2018-09-25T03:20:25.645Z,1021.87
2018-09-25T03:21:25.625Z,1021.89
2018-09-25T03:22:25.622Z,1021.94
2018-09-25T03:23:25.627Z,1021.95
2018-09-25T03:24:25.597Z,1021.96
2018-09-25T03:25:25.590Z,1021.95
2018-09-25T03:26:25.576Z,1021.95
2018-09-25T03:27:25.568Z,1021.92
2018-09-25T03:28:25.584Z,1021.92
2018-09-25T03:29:25.546Z,1021.93
2018-09-25T03:30:25.530Z,1021.91
2018-09-25T03:31:25.521Z,1021.90
2018-09-25T03:32:25.536Z,1021.91
2018-09-25T03:33:25.497Z,1021.93
2018-09-25T03:34:25.494Z,1021.92
2018-09-25T03:35:25.521Z,1021.94
2018-09-25T03:36:25.473Z,1021.93
2018-09-25T03:37:25.463Z,1021.95
2018-09-25T03:38:25.472Z,1021.95
2018-09-25T03:39:25.441Z,1021.89
2018-09-25T03:40:25.429Z,1021.91
2018-09-25T03:41:25.413Z,1021.91
2018-09-25T03:42:25.410Z,1021.89
2018-09-25T03:43:25.415Z,1021.91
2018-09-25T03:44:25.410Z,1021.92
2018-09-25T03:45:25.371Z,1021.87
2018-09-25T03:46:25.368Z,1021.89
2018-09-25T03:47:25.384Z,1021.87
2018-09-25T03:48:25.344Z,1021.86
2018-09-25T03:49:25.336Z,1021.90
2018-09-25T03:50:25.323Z,1021.88
2018-09-25T03:51:25.312Z,1021.89
2018-09-25T03:52:25.303Z,1021.86
2018-09-25T03:53:25.312Z,1021.88
2018-09-25T03:54:25.286Z,1021.89
2018-09-25T03:55:25.270Z,1021.90
2018-09-25T03:56:25.260Z,1021.89
2018-09-25T03:57:25.252Z,1021.89
2018-09-25T03:58:25.252Z,1021.92
2018-09-25T03:59:25.231Z,1021.94
2018-09-25T04:00:25.217Z,1021.91
2018-09-25T04:01:25.215Z,1021.93
2018-09-25T04:02:25.193Z,1021.95
2018-09-25T04:03:25.207Z,1021.96
2018-09-25T04:04:25.180Z,1021.97
2018-09-25T04:05:25.167Z,1021.98
2018-09-25T04:06:25.160Z,1021.95
2018-09-25T04:07:25.156Z,1021.98
2018-09-25T04:08:25.160Z,1021.92
2018-09-25T04:09:25.129Z,1021.92
2018-09-25T04:10:25.112Z,1021.90
2018-09-25T04:11:25.100Z,1021.90
2018-09-25T04:12:25.110Z,1021.83
2018-09-25T04:13:25.105Z,1021.86
2018-09-25T04:14:25.097Z,1021.89
2018-09-25T04:15:25.064Z,1021.89
2018-09-25T04:16:25.052Z,1021.89
2018-09-25T04:17:25.037Z,1021.96
2018-09-25T04:18:25.031Z,1021.90
2018-09-25T04:19:25.018Z,1021.94
2018-09-25T04:20:25.025Z,1021.96
2018-09-25T04:21:25.029Z,1021.92
2018-09-25T04:22:24.999Z,1021.93
2018-09-25T04:23:24.973Z,1022.00
2018-09-25T04:24:24.966Z,1022.00
2018-09-25T04:25:24.967Z,1021.99
2018-09-25T04:26:24.946Z,1021.99
2018-09-25T04:27:24.934Z,1022.02
2018-09-25T04:28:24.962Z,1022.04
2018-09-25T04:29:24.943Z,1022.04
2018-09-25T04:30:24.927Z,1022.07
2018-09-25T04:31:24.888Z,1022.08
2018-09-25T04:32:24.884Z,1022.06
2018-09-25T04:33:24.881Z,1022.12
2018-09-25T04:34:24.878Z,1022.15
2018-09-25T04:35:24.846Z,1022.09
2018-09-25T04:36:24.836Z,1022.12
2018-09-25T04:37:24.824Z,1022.16
2018-09-25T04:38:24.820Z,1022.15
2018-09-25T04:39:24.832Z,1022.11
2018-09-25T04:40:24.804Z,1022.10
2018-09-25T04:41:24.790Z,1022.13
2018-09-25T04:42:24.770Z,1022.08
2018-09-25T04:43:24.761Z,1022.08
2018-09-25T04:44:24.751Z,1022.12
2018-09-25T04:45:24.755Z,1022.16
2018-09-25T04:46:24.737Z,1022.15
2018-09-25T04:47:24.721Z,1022.19
2018-09-25T04:48:24.717Z,1022.16
2018-09-25T04:49:24.703Z,1022.16
2018-09-25T04:50:24.717Z,1022.19
2018-09-25T04:51:24.684Z,1022.19
2018-09-25T04:52:24.668Z,1022.18
2018-09-25T04:53:24.662Z,1022.22
2018-09-25T04:54:24.645Z,1022.19
2018-09-25T04:55:24.635Z,1022.19
2018-09-25T04:56:24.642Z,1022.20
2018-09-25T04:57:24.612Z,1022.13
2018-09-25T04:58:24.613Z,1022.18
2018-09-25T04:59:24.597Z,1022.23
2018-09-25T05:00:24.585Z,1022.25
2018-09-25T05:01:24.601Z,1022.25
2018-09-25T05:02:24.574Z,1022.24
2018-09-25T05:03:24.551Z,1022.26
2018-09-25T05:04:24.551Z,1022.29
2018-09-25T05:05:24.535Z,1022.29
2018-09-25T05:06:24.544Z,1022.31
2018-09-25T05:07:24.508Z,1022.30
2018-09-25T05:08:24.511Z,1022.33
2018-09-25T05:09:24.485Z,1022.30
2018-09-25T05:10:24.527Z,1022.30
2018-09-25T05:11:24.493Z,1022.28
2018-09-25T05:12:24.457Z,1022.30
2018-09-25T05:13:24.488Z,1022.29
2018-09-25T05:14:24.488Z,1022.32
2018-09-25T05:15:24.438Z,1022.33
2018-09-25T05:16:24.430Z,1022.31
2018-09-25T05:17:24.421Z,1022.34
2018-09-25T05:18:24.401Z,1022.30
2018-09-25T05:19:24.390Z,1022.29
2018-09-25T05:20:24.372Z,1022.34
2018-09-25T05:21:24.394Z,1022.35
2018-09-25T05:22:24.355Z,1022.37
2018-09-25T05:23:24.405Z,1022.38
2018-09-25T05:24:24.331Z,1022.42
2018-09-25T05:25:24.344Z,1022.46
2018-09-25T05:26:24.306Z,1022.47
2018-09-25T05:27:24.315Z,1022.43
2018-09-25T05:28:24.289Z,1022.42
2018-09-25T05:29:24.277Z,1022.41
2018-09-25T05:30:24.269Z,1022.43
2018-09-25T05:31:24.268Z,1022.41
2018-09-25T05:32:24.264Z,1022.43
2018-09-25T05:33:24.241Z,1022.47
2018-09-25T05:34:24.224Z,1022.47
2018-09-25T05:35:24.233Z,1022.47
2018-09-25T05:36:24.212Z,1022.43
2018-09-25T05:37:24.219Z,1022.46
2018-09-25T05:38:24.182Z,1022.52
2018-09-25T05:39:24.173Z,1022.48
2018-09-25T05:40:24.177Z,1022.52
2018-09-25T05:41:24.147Z,1022.48
2018-09-25T05:42:24.163Z,1022.49
2018-09-25T05:43:24.135Z,1022.49
2018-09-25T05:44:24.139Z,1022.47
2018-09-25T05:45:24.113Z,1022.49
2018-09-25T05:46:24.111Z,1022.46
2018-09-25T05:47:24.117Z,1022.45
2018-09-25T05:48:24.166Z,1022.48
2018-09-25T05:49:24.089Z,1022.51
2018-09-25T05:50:24.076Z,1022.49
2018-09-25T05:51:24.050Z,1022.49
2018-09-25T05:52:24.052Z,1022.52
2018-09-25T05:53:24.026Z,1022.51
2018-09-25T05:54:24.019Z,1022.48
2018-09-25T05:55:24.050Z,1022.47
2018-09-25T05:56:23.995Z,1022.54
2018-09-25T05:57:24.035Z,1022.54
2018-09-25T05:58:23.990Z,1022.50
2018-09-25T05:59:23.962Z,1022.46
2018-09-25T06:00:23.991Z,1022.47
2018-09-25T06:01:23.957Z,1022.47
2018-09-25T06:02:23.961Z,1022.49
2018-09-25T06:03:23.943Z,1022.50
2018-09-25T06:04:23.910Z,1022.49
2018-09-25T06:05:23.902Z,1022.54
2018-09-25T06:06:23.890Z,1022.56
2018-09-25T06:07:23.903Z,1022.48
2018-09-25T06:08:23.869Z,1022.54
2018-09-25T06:09:23.955Z,1022.50
2018-09-25T06:10:23.843Z,1022.51
2018-09-25T06:11:23.837Z,1022.55
2018-09-25T06:12:23.826Z,1022.49
2018-09-25T06:13:23.838Z,1022.52
2018-09-25T06:14:23.806Z,1022.56
2018-09-25T06:15:23.794Z,1022.53
2018-09-25T06:16:23.783Z,1022.59
2018-09-25T06:17:23.786Z,1022.55
2018-09-25T06:18:23.759Z,1022.52
2018-09-25T06:19:23.769Z,1022.56
2018-09-25T06:20:23.739Z,1022.57
2018-09-25T06:21:23.728Z,1022.61
2018-09-25T06:22:23.727Z,1022.62
2018-09-25T06:23:23.709Z,1022.60
2018-09-25T06:24:23.716Z,1022.63
2018-09-25T06:25:23.684Z,1022.64
2018-09-25T06:26:23.685Z,1022.64
2018-09-25T06:27:23.666Z,1022.65
2018-09-25T06:28:23.672Z,1022.64
2018-09-25T06:29:23.664Z,1022.67
2018-09-25T06:30:23.632Z,1022.67
2018-09-25T06:31:23.624Z,1022.70
2018-09-25T06:32:23.611Z,1022.70
2018-09-25T06:33:23.600Z,1022.70
2018-09-25T06:34:23.681Z,1022.72
2018-09-25T06:35:23.581Z,1022.73
2018-09-25T06:36:23.570Z,1022.75
2018-09-25T06:37:23.583Z,1022.76
2018-09-25T06:38:23.581Z,1022.79
2018-09-25T06:39:23.537Z,1022.82
2018-09-25T06:40:23.569Z,1022.80
2018-09-25T06:41:23.517Z,1022.81
2018-09-25T06:42:23.501Z,1022.85
2018-09-25T06:43:23.508Z,1022.82
2018-09-25T06:44:23.481Z,1022.81
2018-09-25T06:45:23.487Z,1022.80
2018-09-25T06:46:23.547Z,1022.80
2018-09-25T06:47:23.557Z,1022.81
2018-09-25T06:48:23.469Z,1022.86
2018-09-25T06:49:23.442Z,1022.90
2018-09-25T06:50:23.418Z,1022.88
2018-09-25T06:51:23.421Z,1022.88
2018-09-25T06:52:23.395Z,1022.96
2018-09-25T06:53:23.388Z,1022.92
2018-09-25T06:54:23.404Z,1022.98
2018-09-25T06:55:23.369Z,1022.95
2018-09-25T06:56:23.353Z,1022.95
2018-09-25T06:57:23.339Z,1022.99
2018-09-25T06:58:23.336Z,1023.00
2018-09-25T06:59:23.342Z,1022.98
2018-09-25T07:00:23.312Z,1023.00
2018-09-25T07:01:23.303Z,1022.94
2018-09-25T07:02:23.285Z,1022.99
2018-09-25T07:03:23.289Z,1023.04
2018-09-25T07:04:23.315Z,1023.03
2018-09-25T07:05:23.260Z,1023.04
2018-09-25T07:06:23.242Z,1023.13
2018-09-25T07:07:23.236Z,1023.09
2018-09-25T07:08:23.227Z,1023.09
2018-09-25T07:09:23.254Z,1023.07
2018-09-25T07:10:23.299Z,1023.10
2018-09-25T07:11:23.193Z,1023.09
2018-09-25T07:12:23.191Z,1023.08
2018-09-25T07:13:23.168Z,1023.13
2018-09-25T07:14:23.185Z,1023.11
2018-09-25T07:15:23.152Z,1023.09
2018-09-25T07:16:23.173Z,1023.14
2018-09-25T07:17:23.132Z,1023.17
2018-09-25T07:18:23.137Z,1023.16
2018-09-25T07:19:23.129Z,1023.13
2018-09-25T07:20:23.102Z,1023.17
2018-09-25T07:21:23.082Z,1023.17
2018-09-25T07:22:23.084Z,1023.16
2018-09-25T07:23:23.114Z,1023.18
2018-09-25T07:24:23.124Z,1023.24
2018-09-25T07:25:23.061Z,1023.21
2018-09-25T07:26:23.079Z,1023.25
2018-09-25T07:27:23.021Z,1023.29
2018-09-25T07:28:23.012Z,1023.27
2018-09-25T07:29:23.007Z,1023.28
2018-09-25T07:30:23.005Z,1023.26
2018-09-25T07:31:22.997Z,1023.23
2018-09-25T07:32:22.966Z,1023.25
2018-09-25T07:33:22.955Z,1023.27
2018-09-25T07:34:22.949Z,1023.31
2018-09-25T07:35:22.959Z,1023.33
2018-09-25T07:36:22.936Z,1023.30
2018-09-25T07:37:22.970Z,1023.32
2018-09-25T07:38:22.943Z,1023.33
2018-09-25T07:39:22.891Z,1023.29
2018-09-25T07:40:22.886Z,1023.29
2018-09-25T07:41:22.900Z,1023.26
2018-09-25T07:42:22.863Z,1023.25
2018-09-25T07:43:22.850Z,1023.30
2018-09-25T07:44:22.838Z,1023.30
2018-09-25T07:45:22.829Z,1023.31
2018-09-25T07:46:22.822Z,1023.34
2018-09-25T07:47:22.824Z,1023.29
2018-09-25T07:48:22.891Z,1023.26
2018-09-25T07:49:22.788Z,1023.25
2018-09-25T07:50:22.792Z,1023.26
2018-09-25T07:51:24.614Z,1023.30
2018-09-25T07:52:22.754Z,1023.30
2018-09-25T07:53:22.750Z,1023.29
2018-09-25T07:54:22.734Z,1023.28
2018-09-25T07:55:22.785Z,1023.29
2018-09-25T07:56:22.711Z,1023.36
2018-09-25T07:57:22.723Z,1023.42
2018-09-25T07:58:22.720Z,1023.42
2018-09-25T07:59:22.677Z,1023.40
2018-09-25T08:00:22.677Z,1023.44
2018-09-25T08:01:22.667Z,1023.44
2018-09-25T08:02:22.661Z,1023.40
2018-09-25T08:03:22.706Z,1023.41
2018-09-25T08:04:22.627Z,1023.36
2018-09-25T08:05:22.636Z,1023.34
2018-09-25T08:06:22.604Z,1023.39
2018-09-25T08:07:22.591Z,1023.40
2018-09-25T08:08:22.599Z,1023.43
2018-09-25T08:09:22.572Z,1023.43
2018-09-25T08:10:22.554Z,1023.43
2018-09-25T08:11:22.589Z,1023.41
2018-09-25T08:12:23.468Z,1023.42
2018-09-25T08:13:22.538Z,1023.41
2018-09-25T08:14:22.545Z,1023.45
2018-09-25T08:15:22.568Z,1023.46
2018-09-25T08:16:22.512Z,1023.52
2018-09-25T08:17:22.496Z,1023.54
2018-09-25T08:18:22.476Z,1023.53
2018-09-25T08:19:22.471Z,1023.56
2018-09-25T08:20:22.461Z,1023.61
2018-09-25T08:21:22.473Z,1023.58
2018-09-25T08:22:22.431Z,1023.58
2018-09-25T08:23:22.448Z,1023.65
2018-09-25T08:24:22.409Z,1023.64
2018-09-25T08:25:22.401Z,1023.64
2018-09-25T08:26:22.388Z,1023.63
2018-09-25T08:27:22.382Z,1023.70
2018-09-25T08:28:22.390Z,1023.69
2018-09-25T08:29:22.356Z,1023.68
2018-09-25T08:30:22.361Z,1023.71
2018-09-25T08:31:22.330Z,1023.71
2018-09-25T08:32:22.322Z,1023.74
2018-09-25T08:33:22.316Z,1023.71
2018-09-25T08:34:22.296Z,1023.68
2018-09-25T08:35:22.289Z,1023.69
2018-09-25T08:36:22.295Z,1023.66
2018-09-25T08:37:22.269Z,1023.63
2018-09-25T08:38:22.314Z,1023.65
2018-09-25T08:39:22.341Z,1023.63
2018-09-25T08:40:22.234Z,1023.68
2018-09-25T08:41:22.245Z,1023.66
2018-09-25T08:42:22.208Z,1023.66
2018-09-25T08:43:22.200Z,1023.65
2018-09-25T08:44:22.243Z,1023.70
2018-09-25T08:45:22.226Z,1023.71
2018-09-25T08:46:22.193Z,1023.72
2018-09-25T08:47:22.159Z,1023.76
2018-09-25T08:48:22.150Z,1023.72
2018-09-25T08:49:22.151Z,1023.76
2018-09-25T08:50:22.141Z,1023.76
2018-09-25T08:51:22.116Z,1023.74
2018-09-25T08:52:22.109Z,1023.76
2018-09-25T08:53:22.109Z,1023.77
2018-09-25T08:54:22.099Z,1023.75
2018-09-25T08:55:22.074Z,1023.81
2018-09-25T08:56:22.067Z,1023.78
2018-09-25T08:57:22.217Z,1023.74
2018-09-25T08:58:22.082Z,1023.79
2018-09-25T08:59:22.051Z,1023.75
2018-09-25T09:00:22.043Z,1023.76
2018-09-25T09:01:22.045Z,1023.79
2018-09-25T09:02:22.079Z,1023.82
2018-09-25T09:03:21.987Z,1023.85
2018-09-25T09:04:22.009Z,1023.86
2018-09-25T09:05:21.969Z,1023.82
2018-09-25T09:06:21.950Z,1023.83
2018-09-25T09:07:21.943Z,1023.88
2018-09-25T09:08:21.977Z,1023.87
2018-09-25T09:09:21.918Z,1023.87
2018-09-25T09:10:21.917Z,1023.86
2018-09-25T09:11:21.928Z,1023.91
2018-09-25T09:12:21.889Z,1023.90
2018-09-25T09:13:21.900Z,1023.93
2018-09-25T09:14:21.863Z,1023.92
2018-09-25T09:15:21.861Z,1023.91
2018-09-25T09:16:21.843Z,1023.90
2018-09-25T09:17:21.848Z,1023.87
2018-09-25T09:18:21.828Z,1023.89
2018-09-25T09:19:21.829Z,1023.85
2018-09-25T09:20:21.812Z,1023.85
2018-09-25T09:21:21.787Z,1023.90
2018-09-25T09:22:21.799Z,1023.87
2018-09-25T09:23:21.769Z,1023.83
2018-09-25T09:24:21.761Z,1023.89
2018-09-25T09:25:21.767Z,1023.86
2018-09-25T09:26:21.741Z,1023.91
2018-09-25T09:27:21.723Z,1023.90
2018-09-25T09:28:21.730Z,1023.89
2018-09-25T09:29:21.728Z,1023.92
2018-09-25T09:30:21.701Z,1023.88
2018-09-25T09:31:21.708Z,1023.91
2018-09-25T09:32:21.678Z,1023.87
2018-09-25T09:33:21.664Z,1023.87
2018-09-25T09:34:21.657Z,1023.84
2018-09-25T09:35:21.637Z,1023.90
2018-09-25T09:36:21.646Z,1023.85
2018-09-25T09:37:21.620Z,1023.85
2018-09-25T09:38:21.621Z,1023.86
2018-09-25T09:39:21.612Z,1023.90
2018-09-25T09:40:21.596Z,1023.92
2018-09-25T09:41:21.702Z,1023.85
2018-09-25T09:42:21.577Z,1023.90
2018-09-25T09:43:21.553Z,1023.92
2018-09-25T09:44:21.558Z,1023.86
2018-09-25T09:45:21.549Z,1023.80
2018-09-25T09:46:21.544Z,1023.85
2018-09-25T09:47:21.528Z,1023.84
2018-09-25T09:48:21.500Z,1023.88
2018-09-25T09:49:21.486Z,1023.92
2018-09-25T09:50:21.504Z,1023.96
2018-09-25T09:51:21.484Z,1023.95
2018-09-25T09:52:21.454Z,1023.90
2018-09-25T09:53:21.473Z,1023.90
2018-09-25T09:54:21.447Z,1023.92
2018-09-25T09:55:21.431Z,1023.93
2018-09-25T09:56:21.513Z,1023.95
2018-09-25T09:57:21.411Z,1023.95
2018-09-25T09:58:21.402Z,1023.95
2018-09-25T09:59:21.380Z,1023.94
2018-09-25T10:00:21.366Z,1023.95
2018-09-25T10:01:21.389Z,1023.93
2018-09-25T10:02:21.349Z,1023.94
2018-09-25T10:03:21.337Z,1023.94
2018-09-25T10:04:21.329Z,1023.95
2018-09-25T10:05:21.315Z,1023.96
2018-09-25T10:06:21.299Z,1023.96
2018-09-25T10:07:21.311Z,1023.92
2018-09-25T10:08:21.311Z,1023.97
2018-09-25T10:09:21.273Z,1023.91
2018-09-25T10:10:21.255Z,1023.97
2018-09-25T10:11:21.246Z,1023.97
2018-09-25T10:12:21.263Z,1023.97
2018-09-25T10:13:21.224Z,1023.96
2018-09-25T10:14:21.222Z,1023.98
2018-09-25T10:15:21.206Z,1023.93
2018-09-25T10:16:21.201Z,1023.97
2018-09-25T10:17:21.207Z,1023.91
2018-09-25T10:18:21.168Z,1023.94
2018-09-25T10:19:21.177Z,1023.95
2018-09-25T10:20:21.149Z,1023.94
2018-09-25T10:21:21.136Z,1024.00
2018-09-25T10:22:21.155Z,1023.96
2018-09-25T10:23:21.119Z,1024.00
2018-09-25T10:24:21.130Z,1023.94
2018-09-25T10:25:21.095Z,1023.92
2018-09-25T10:26:21.090Z,1023.96
2018-09-25T10:27:21.117Z,1023.93
2018-09-25T10:28:21.072Z,1023.98
2018-09-25T10:29:21.083Z,1023.95
2018-09-25T10:30:21.046Z,1023.96
2018-09-25T10:31:21.032Z,1023.97
2018-09-25T10:32:21.041Z,1023.95
2018-09-25T10:33:21.009Z,1023.95
2018-09-25T10:34:21.095Z,1023.94
2018-09-25T10:35:20.999Z,1023.91
2018-09-25T10:36:20.980Z,1023.94
2018-09-25T10:37:20.972Z,1023.98
2018-09-25T10:38:20.953Z,1023.98
2018-09-25T10:39:20.965Z,1023.98
2018-09-25T10:40:20.967Z,1023.98
2018-09-25T10:41:20.933Z,1024.04
2018-09-25T10:42:20.934Z,1024.03
2018-09-25T10:43:20.926Z,1023.99
2018-09-25T10:44:20.899Z,1023.96
2018-09-25T10:45:20.895Z,1023.92
2018-09-25T10:46:20.876Z,1023.92
2018-09-25T10:47:20.862Z,1023.98
2018-09-25T10:48:20.869Z,1023.98
2018-09-25T10:49:20.848Z,1023.95
2018-09-25T10:50:20.880Z,1023.94
2018-09-25T10:51:20.817Z,1024.03
2018-09-25T10:52:20.807Z,1023.99
2018-09-25T10:53:20.810Z,1023.97
2018-09-25T10:54:20.799Z,1023.93
2018-09-25T10:55:20.781Z,1023.96
2018-09-25T10:56:20.847Z,1023.93
2018-09-25T10:57:20.756Z,1023.98
2018-09-25T10:58:20.766Z,1023.94
2018-09-25T10:59:20.734Z,1023.94
2018-09-25T11:00:20.722Z,1023.96
2018-09-25T11:01:20.714Z,1023.95
2018-09-25T11:02:20.701Z,1023.96
2018-09-25T11:03:20.788Z,1023.92
2018-09-25T11:04:20.677Z,1023.97
2018-09-25T11:05:20.664Z,1023.94
2018-09-25T11:06:20.659Z,1023.95
2018-09-25T11:07:20.646Z,1023.96
2018-09-25T11:08:20.649Z,1023.97
2018-09-25T11:09:20.654Z,1023.94
2018-09-25T11:10:20.613Z,1023.95
2018-09-25T11:11:20.620Z,1023.93
2018-09-25T11:12:20.624Z,1023.87
2018-09-25T11:13:20.583Z,1023.91
2018-09-25T11:14:20.586Z,1023.85
2018-09-25T11:15:20.578Z,1023.79
2018-09-25T11:16:20.556Z,1023.89
2018-09-25T11:17:20.534Z,1023.90
2018-09-25T11:18:20.543Z,1023.93
2018-09-25T11:19:20.520Z,1023.92
2018-09-25T11:20:20.555Z,1023.92
2018-09-25T11:21:20.497Z,1023.92
2018-09-25T11:22:20.484Z,1023.90
2018-09-25T11:23:20.469Z,1023.90
2018-09-25T11:24:20.459Z,1023.94
2018-09-25T11:25:21.382Z,1023.93
2018-09-25T11:26:20.459Z,1023.93
2018-09-25T11:27:20.446Z,1023.90
2018-09-25T11:28:20.424Z,1023.93
2018-09-25T11:29:20.414Z,1023.92
2018-09-25T11:30:20.403Z,1023.91
2018-09-25T11:31:20.423Z,1023.92
2018-09-25T11:32:20.421Z,1023.96
2018-09-25T11:33:20.367Z,1023.96
2018-09-25T11:34:20.355Z,1023.99
2018-09-25T11:35:20.376Z,1023.93
2018-09-25T11:36:20.330Z,1023.97
2018-09-25T11:37:20.321Z,1023.99
2018-09-25T11:38:20.331Z,1023.95
2018-09-25T11:39:20.305Z,1023.97
2018-09-25T11:40:20.293Z,1023.99
2018-09-25T11:41:20.364Z,1023.98
2018-09-25T11:42:20.268Z,1023.98
2018-09-25T11:43:20.279Z,1023.97
2018-09-25T11:44:20.249Z,1023.98
2018-09-25T11:45:20.239Z,1023.93
2018-09-25T11:46:20.228Z,1023.89
2018-09-25T11:47:20.210Z,1023.92
2018-09-25T11:48:20.205Z,1023.87
2018-09-25T11:49:20.209Z,1023.83
2018-09-25T11:50:20.185Z,1023.77
2018-09-25T11:51:20.212Z,1023.80
2018-09-25T11:52:20.186Z,1023.74
2018-09-25T11:53:20.180Z,1023.77
2018-09-25T11:54:20.140Z,1023.71
2018-09-25T11:55:20.125Z,1023.67
2018-09-25T11:56:20.216Z,1023.67
2018-09-25T11:57:20.108Z,1023.68
2018-09-25T11:58:20.110Z,1023.72
2018-09-25T11:59:20.087Z,1023.65
2018-09-25T12:00:20.069Z,1023.73
2018-09-25T12:01:20.060Z,1023.75
2018-09-25T12:02:20.073Z,1023.82
2018-09-25T12:03:20.044Z,1023.78
2018-09-25T12:04:20.038Z,1023.80
2018-09-25T12:05:20.027Z,1023.82